Time;durP1;ratioP1;P1;durP2;ratioP2;P2;SDS_P1;SDS_P2;PMS_P1;PMS_P2;Temp;Humidity;BMP_temperature;BMP_pressure;BME280_temperature;BME280_humidity;BME280_pressure;Samples;Min_cycle;Max_cycle;Signal;HPM_P1;HPM_P2
2023/09/09 01:17:56;;;;;;;17.97;16.60;;;21.60;31.20;;;;;;5807918;23;20503;-78
2023/09/09 01:20:25;;;;;;;17.07;15.87;;;21.50;31.20;;;;;;4956696;29;20439;-79
2023/09/09 01:22:51;;;;;;;16.90;15.73;;;21.60;31.20;;;;;;4957449;29;20303;-79
2023/09/09 01:25:16;;;;;;;16.97;15.87;;;21.60;31.40;;;;;;4957424;29;20462;-79
2023/09/09 01:27:42;;;;;;;17.03;15.73;;;21.50;31.50;;;;;;4949373;28;20746;-79
2023/09/09 01:30:09;;;;;;;17.87;16.50;;;21.50;31.60;;;;;;4950149;29;20644;-79
2023/09/09 01:32:35;;;;;;;15.90;14.90;;;21.50;31.50;;;;;;4953670;29;20188;-79
2023/09/09 01:35:06;;;;;;;15.87;14.77;;;21.50;31.40;;;;;;4964004;28;20482;-79
2023/09/09 01:37:32;;;;;;;16.40;15.30;;;21.40;31.40;;;;;;4956879;29;20794;-79
2023/09/09 01:40:00;;;;;;;16.17;15.13;;;21.50;31.20;;;;;;4946418;29;20935;-79
2023/09/09 01:42:26;;;;;;;16.63;15.40;;;21.50;31.40;;;;;;4944489;29;20475;-79
2023/09/09 01:44:51;;;;;;;15.87;14.87;;;21.40;31.60;;;;;;4947068;29;20458;-80
2023/09/09 01:47:17;;;;;;;16.57;15.33;;;21.50;31.70;;;;;;4952626;29;20215;-80
2023/09/09 01:49:42;;;;;;;15.40;14.27;;;21.40;31.70;;;;;;4934330;29;20184;-79
2023/09/09 01:52:08;;;;;;;16.67;15.63;;;21.40;31.60;;;;;;4938069;29;20242;-79
2023/09/09 01:54:35;;;;;;;16.30;15.30;;;21.40;31.90;;;;;;4938254;29;20196;-80
2023/09/09 01:57:00;;;;;;;15.33;14.43;;;21.40;31.60;;;;;;4940009;29;20475;-79
2023/09/09 01:59:26;;;;;;;16.13;15.10;;;21.50;31.20;;;;;;4941757;29;20934;-81
2023/09/09 02:01:52;;;;;;;16.30;15.07;;;21.50;31.20;;;;;;4941902;29;20212;-78
2023/09/09 02:04:18;;;;;;;15.50;14.30;;;21.50;31.20;;;;;;4936957;29;20204;-79
2023/09/09 02:06:44;;;;;;;16.50;15.53;;;21.40;31.10;;;;;;4940036;29;20470;-80
2023/09/09 02:09:10;;;;;;;16.33;15.30;;;21.50;31.20;;;;;;4945317;29;20671;-79
2023/09/09 02:11:35;;;;;;;19.87;18.63;;;21.40;31.10;;;;;;4948346;29;20443;-80
2023/09/09 02:14:01;;;;;;;32.70;30.03;;;21.40;31.10;;;;;;4953860;29;20187;-79
2023/09/09 02:16:26;;;;;;;18.17;16.97;;;21.40;31.10;;;;;;4944785;29;20247;-80
2023/09/09 02:18:52;;;;;;;16.10;15.03;;;21.40;31.10;;;;;;4940966;29;20243;-79
2023/09/09 02:21:17;;;;;;;16.40;15.30;;;21.40;31.10;;;;;;4943380;29;20235;-79
2023/09/09 02:23:43;;;;;;;17.80;16.37;;;21.40;31.50;;;;;;4949050;29;20569;-79
2023/09/09 02:26:09;;;;;;;18.20;16.90;;;21.30;31.90;;;;;;4961055;29;20214;-79
2023/09/09 02:28:34;;;;;;;17.83;16.60;;;21.30;32.40;;;;;;4950686;29;20192;-79
2023/09/09 02:31:00;;;;;;;18.17;16.87;;;21.30;32.50;;;;;;4942880;29;20750;-79
2023/09/09 02:33:26;;;;;;;16.83;15.63;;;21.20;32.50;;;;;;4943746;29;20198;-79
2023/09/09 02:35:52;;;;;;;16.90;15.60;;;21.20;32.60;;;;;;4940914;29;20219;-80
2023/09/09 02:38:17;;;;;;;17.50;16.10;;;21.20;32.60;;;;;;4941041;29;20223;-80
2023/09/09 02:40:43;;;;;;;16.47;15.23;;;21.20;32.60;;;;;;4945322;29;20455;-80
2023/09/09 02:43:10;;;;;;;17.43;16.37;;;21.20;32.60;;;;;;4942796;29;20223;-80
2023/09/09 02:45:37;;;;;;;16.87;15.70;;;21.20;32.50;;;;;;4952326;29;20277;-81
2023/09/09 02:48:03;;;;;;;17.43;16.33;;;21.30;32.60;;;;;;4965902;28;20467;-80
2023/09/09 02:50:29;;;;;;;17.07;15.77;;;21.20;32.50;;;;;;4965110;28;20435;-81
2023/09/09 02:52:54;;;;;;;18.07;16.77;;;21.30;32.50;;;;;;4951352;28;20424;-81
2023/09/09 02:55:20;;;;;;;16.93;15.73;;;21.30;32.60;;;;;;4948979;29;20196;-81
2023/09/09 02:57:49;;;;;;;17.53;16.43;;;21.20;32.60;;;;;;4967017;28;20203;-81
2023/09/09 03:00:14;;;;;;;17.13;16.13;;;21.20;32.80;;;;;;4964739;28;20198;-79
2023/09/09 03:02:42;;;;;;;16.30;15.20;;;21.20;32.70;;;;;;4974645;28;20466;-80
2023/09/09 03:05:08;;;;;;;16.50;15.50;;;21.20;32.80;;;;;;4948747;29;20247;-79
2023/09/09 03:07:34;;;;;;;18.37;16.87;;;21.20;32.70;;;;;;4974425;28;20542;-80
2023/09/09 03:09:59;;;;;;;16.90;15.80;;;21.20;33.00;;;;;;4948417;29;20468;-80
2023/09/09 03:12:25;;;;;;;17.40;16.20;;;21.20;33.00;;;;;;4954337;29;20249;-80
2023/09/09 03:14:50;;;;;;;15.70;14.80;;;21.10;33.10;;;;;;4944516;29;20196;-79
2023/09/09 03:17:18;;;;;;;16.83;15.57;;;21.10;33.00;;;;;;4949704;29;20359;-79
2023/09/09 03:19:44;;;;;;;16.80;15.70;;;21.10;32.90;;;;;;4972396;28;20676;-80
2023/09/09 03:22:10;;;;;;;15.87;14.87;;;21.10;32.80;;;;;;4947339;28;20467;-80
2023/09/09 03:24:35;;;;;;;16.27;15.27;;;21.10;32.70;;;;;;4966019;29;20443;-80
2023/09/09 03:27:01;;;;;;;17.10;15.97;;;21.10;33.10;;;;;;4969313;28;20211;-78
2023/09/09 03:29:26;;;;;;;15.77;14.87;;;21.10;33.40;;;;;;4958572;29;20184;-79
2023/09/09 03:31:52;;;;;;;18.33;16.80;;;21.00;33.60;;;;;;4966200;28;20196;-78
2023/09/09 03:34:18;;;;;;;17.60;16.40;;;21.00;33.80;;;;;;4962908;29;20199;-79
2023/09/09 03:36:43;;;;;;;18.03;16.93;;;21.00;34.00;;;;;;4959804;29;20216;-79
2023/09/09 03:39:09;;;;;;;17.33;16.33;;;21.00;34.10;;;;;;4949482;29;20198;-79
2023/09/09 03:41:35;;;;;;;17.67;16.57;;;20.90;34.20;;;;;;4951599;29;20237;-80
2023/09/09 03:44:00;;;;;;;16.40;15.40;;;21.00;34.40;;;;;;4948230;29;20187;-80
2023/09/09 03:46:26;;;;;;;16.90;15.80;;;20.90;34.30;;;;;;4944901;29;20211;-80
2023/09/09 03:48:52;;;;;;;17.00;15.97;;;21.00;34.40;;;;;;4946803;29;20520;-79
2023/09/09 03:51:19;;;;;;;17.13;16.03;;;21.00;34.30;;;;;;4948429;29;20186;-80
2023/09/09 03:53:45;;;;;;;17.60;16.43;;;21.00;34.40;;;;;;4940756;29;20538;-80
2023/09/09 03:56:11;;;;;;;16.53;15.33;;;21.00;34.90;;;;;;4936907;29;20909;-80
2023/09/09 03:58:36;;;;;;;17.30;16.20;;;20.90;34.10;;;;;;4953932;29;20514;-79
2023/09/09 04:01:07;;;;;;;17.37;16.27;;;20.90;34.10;;;;;;4957331;29;20192;-79
2023/09/09 04:03:34;;;;;;;16.93;15.60;;;21.00;34.00;;;;;;4966351;29;20184;-79
2023/09/09 04:06:03;;;;;;;18.27;16.97;;;20.90;34.30;;;;;;4971111;29;20464;-79
2023/09/09 04:08:29;;;;;;;16.87;15.67;;;20.80;34.30;;;;;;4954269;29;20550;-80
2023/09/09 04:10:55;;;;;;;16.43;15.40;;;20.80;34.50;;;;;;4957893;28;20451;-79
2023/09/09 04:13:20;;;;;;;17.23;16.23;;;20.80;34.50;;;;;;4952358;29;20814;-79
2023/09/09 04:15:46;;;;;;;17.70;16.20;;;20.80;34.60;;;;;;4949376;29;20213;-78
2023/09/09 04:18:12;;;;;;;17.73;16.57;;;20.80;34.70;;;;;;4946869;29;20199;-79
2023/09/09 04:20:38;;;;;;;16.67;15.57;;;20.70;34.70;;;;;;4950050;29;20271;-78
2023/09/09 04:23:04;;;;;;;17.20;15.90;;;20.70;34.70;;;;;;4965901;28;20467;-79
2023/09/09 04:25:29;;;;;;;14.77;13.87;;;20.80;34.70;;;;;;4951748;28;20197;-79
2023/09/09 04:27:55;;;;;;;17.23;16.13;;;20.70;34.60;;;;;;4951021;29;20192;-79
2023/09/09 04:30:20;;;;;;;18.33;16.97;;;20.80;34.60;;;;;;4943602;29;20192;-80
2023/09/09 04:32:46;;;;;;;16.90;15.90;;;20.80;34.60;;;;;;4943590;29;20192;-79
2023/09/09 04:35:12;;;;;;;17.07;15.87;;;20.80;34.60;;;;;;4958308;29;20499;-81
2023/09/09 04:37:37;;;;;;;17.50;16.33;;;20.80;34.40;;;;;;4964831;28;20239;-81
2023/09/09 04:40:05;;;;;;;17.23;15.80;;;20.80;34.10;;;;;;4942826;29;20192;-80
2023/09/09 04:42:32;;;;;;;16.90;15.90;;;20.80;34.00;;;;;;4965775;28;20215;-81
2023/09/09 04:44:58;;;;;;;16.93;15.87;;;20.80;33.90;;;;;;4946778;28;20428;-81
2023/09/09 04:47:24;;;;;;;17.10;16.07;;;20.80;34.00;;;;;;4959340;29;20488;-81
2023/09/09 04:49:55;;;;;;;16.13;15.20;;;20.70;34.00;;;;;;4947588;29;20708;-82
2023/09/09 04:52:21;;;;;;;16.60;15.60;;;20.70;34.10;;;;;;4940633;29;20824;-79
2023/09/09 04:54:46;;;;;;;16.10;15.20;;;20.70;34.10;;;;;;4947106;29;20443;-80
2023/09/09 04:57:12;;;;;;;16.80;15.63;;;20.70;34.20;;;;;;4950489;29;20287;-81
2023/09/09 04:59:38;;;;;;;15.83;14.93;;;20.70;34.30;;;;;;4942465;29;20656;-78
2023/09/09 05:02:03;;;;;;;16.57;15.57;;;20.70;35.10;;;;;;4950043;29;20207;-78
2023/09/09 05:04:29;;;;;;;16.77;15.60;;;20.80;34.50;;;;;;4947674;29;20432;-79
2023/09/09 05:06:55;;;;;;;17.00;16.00;;;20.70;33.90;;;;;;4956369;29;20208;-79
2023/09/09 05:09:20;;;;;;;16.67;15.23;;;20.60;35.10;;;;;;4941173;29;20195;-79
2023/09/09 05:11:46;;;;;;;18.00;16.87;;;20.40;35.40;;;;;;4941231;29;20196;-78
2023/09/09 05:14:11;;;;;;;17.50;16.50;;;20.40;36.50;;;;;;4941244;29;20199;-78
2023/09/09 09:36:18;;;;;;;15.67;14.27;;;26.30;23.20;;;;;;5883626;23;20471;-76
2023/09/09 09:39:52;;;;;;;15.70;14.63;;;26.40;22.00;;;;;;4937614;28;20448;-76
2023/09/09 09:42:28;;;;;;;16.37;15.33;;;26.60;21.50;;;;;;4866191;29;20482;-76
2023/09/09 09:45:24;;;;;;;15.10;14.20;;;26.70;21.00;;;;;;4877558;29;20426;-76
2023/09/09 09:48:05;;;;;;;15.53;14.23;;;26.90;20.40;;;;;;4869296;29;20458;-76
2023/09/09 09:54:24;;;;;;;14.47;13.33;;;27.00;20.20;;;;;;4880349;29;20803;-76
2023/09/09 09:57:00;;;;;;;13.70;12.90;;;27.20;17.60;;;;;;4908867;29;21000;-76
2023/09/09 23:12:22;;;;;;;13.10;12.10;;;23.20;27.20;;;;;;5874203;23;20689;-78
2023/09/09 23:14:48;;;;;;;13.90;12.67;;;23.10;27.30;;;;;;4936509;29;20456;-80
2023/09/09 23:17:13;;;;;;;13.63;12.50;;;23.10;27.40;;;;;;4938413;29;20447;-78
2023/09/09 23:19:39;;;;;;;12.40;11.50;;;23.10;27.30;;;;;;4928443;29;20193;-78
2023/09/09 23:22:04;;;;;;;12.90;11.60;;;23.10;27.10;;;;;;4928277;29;20711;-77
2023/09/09 23:24:30;;;;;;;12.40;11.50;;;23.10;27.00;;;;;;4931211;29;20188;-77
2023/09/09 23:26:57;;;;;;;11.23;10.40;;;23.10;27.00;;;;;;4946506;29;20713;-77
2023/09/09 23:29:22;;;;;;;11.97;11.07;;;23.10;27.00;;;;;;4929552;29;20427;-77
2023/09/09 23:31:48;;;;;;;12.50;11.50;;;23.10;27.10;;;;;;4927212;29;20445;-77
2023/09/09 23:34:13;;;;;;;12.93;12.00;;;23.00;27.30;;;;;;4928551;29;20316;-77
2023/09/09 23:36:39;;;;;;;12.40;11.37;;;23.00;27.30;;;;;;4931545;29;20204;-78
2023/09/09 23:39:08;;;;;;;12.00;10.97;;;22.90;27.40;;;;;;4931882;29;20180;-77
2023/09/09 23:41:37;;;;;;;12.10;11.10;;;22.90;27.60;;;;;;4939808;29;20467;-77
2023/09/09 23:44:03;;;;;;;12.83;11.73;;;22.90;27.80;;;;;;4931659;29;20428;-78
2023/09/09 23:46:29;;;;;;;13.60;12.37;;;22.90;27.80;;;;;;4928893;29;20493;-76
2023/09/09 23:48:55;;;;;;;13.27;12.00;;;22.90;27.90;;;;;;4927983;29;20235;-77
2023/09/09 23:51:21;;;;;;;12.87;11.77;;;22.90;28.00;;;;;;4932719;29;20432;-77
2023/09/09 23:53:47;;;;;;;12.37;11.57;;;22.90;27.80;;;;;;4928443;29;20268;-77
2023/09/09 23:56:12;;;;;;;12.67;11.47;;;22.90;27.80;;;;;;4947361;29;20195;-78
2023/09/09 23:58:38;;;;;;;13.03;11.80;;;22.90;27.80;;;;;;4926572;29;20672;-77
